sensor_id;sensor_type;location;lat;lon;timestamp;P1;durP1;ratioP1;P2;durP2;ratioP2
47920;SDS011;33686;48.770;9.186;2024-01-10T06:16:33;15.27;;;9.63;;
47920;SDS011;33686;48.770;9.186;2024-01-10T06:18:59;19.53;;;9.43;;
47920;SDS011;33686;48.770;9.186;2024-01-10T06:21:24;18.07;;;9.60;;
47920;SDS011;33686;48.770;9.186;2024-01-10T06:23:50;18.73;;;9.70;;
47920;SDS011;33686;48.770;9.186;2024-01-10T06:26:16;17.80;;;9.60;;
47920;SDS011;33686;48.770;9.186;2024-01-10T06:28:41;17.85;;;9.80;;
47920;SDS011;33686;48.770;9.186;2024-01-10T06:31:07;17.73;;;9.60;;
47920;SDS011;33686;48.770;9.186;2024-01-10T06:33:33;16.73;;;9.63;;
47920;SDS011;33686;48.770;9.186;2024-01-10T06:35:58;15.43;;;9.05;;
47920;SDS011;33686;48.770;9.186;2024-01-10T06:38:24;17.67;;;10.27;;
47920;SDS011;33686;48.770;9.186;2024-01-10T06:40:50;16.52;;;9.07;;
47920;SDS011;33686;48.770;9.186;2024-01-10T06:43:15;15.75;;;9.63;;
47920;SDS011;33686;48.770;9.186;2024-01-10T06:45:41;17.63;;;9.38;;
47920;SDS011;33686;48.770;9.186;2024-01-10T06:48:10;21.55;;;10.00;;
47920;SDS011;33686;48.770;9.186;2024-01-10T06:50:36;18.17;;;10.47;;
47920;SDS011;33686;48.770;9.186;2024-01-10T06:55:28;17.40;;;9.75;;
47920;SDS011;33686;48.770;9.186;2024-01-10T06:57:54;20.05;;;10.93;;
47920;SDS011;33686;48.770;9.186;2024-01-10T07:00:20;18.57;;;9.73;;
47920;SDS011;33686;48.770;9.186;2024-01-10T07:02:47;16.60;;;10.45;;
47920;SDS011;33686;48.770;9.186;2024-01-10T07:05:14;17.67;;;9.57;;
47920;SDS011;33686;48.770;9.186;2024-01-10T07:07:39;19.13;;;10.52;;
47920;SDS011;33686;48.770;9.186;2024-01-10T07:10:05;14.57;;;8.90;;
47920;SDS011;33686;48.770;9.186;2024-01-10T07:12:31;16.97;;;9.50;;
47920;SDS011;33686;48.770;9.186;2024-01-10T07:15:00;20.58;;;10.95;;
47920;SDS011;33686;48.770;9.186;2024-01-10T07:17:28;17.55;;;9.60;;
47920;SDS011;33686;48.770;9.186;2024-01-10T07:19:54;13.73;;;9.57;;
47920;SDS011;33686;48.770;9.186;2024-01-10T07:22:22;18.75;;;10.90;;
47920;SDS011;33686;48.770;9.186;2024-01-10T07:24:48;24.25;;;12.30;;
47920;SDS011;33686;48.770;9.186;2024-01-10T07:27:14;21.40;;;10.73;;
47920;SDS011;33686;48.770;9.186;2024-01-10T07:29:42;17.70;;;9.43;;
47920;SDS011;33686;48.770;9.186;2024-01-10T07:32:08;19.25;;;10.95;;
47920;SDS011;33686;48.770;9.186;2024-01-10T07:34:37;19.70;;;11.25;;
47920;SDS011;33686;48.770;9.186;2024-01-10T07:37:04;19.80;;;10.00;;
47920;SDS011;33686;48.770;9.186;2024-01-10T07:39:29;22.43;;;12.17;;
47920;SDS011;33686;48.770;9.186;2024-01-10T07:41:55;19.30;;;9.70;;
47920;SDS011;33686;48.770;9.186;2024-01-10T07:44:21;14.77;;;9.40;;
47920;SDS011;33686;48.770;9.186;2024-01-10T07:46:47;18.10;;;10.63;;
47920;SDS011;33686;48.770;9.186;2024-01-10T07:49:12;18.83;;;10.90;;
47920;SDS011;33686;48.770;9.186;2024-01-10T07:51:38;20.60;;;11.32;;
47920;SDS011;33686;48.770;9.186;2024-01-10T07:54:03;22.00;;;12.47;;
47920;SDS011;33686;48.770;9.186;2024-01-10T07:56:29;18.30;;;10.35;;
47920;SDS011;33686;48.770;9.186;2024-01-10T07:58:55;17.70;;;10.77;;
47920;SDS011;33686;48.770;9.186;2024-01-10T08:01:21;21.17;;;10.90;;
47920;SDS011;33686;48.770;9.186;2024-01-10T08:03:47;21.80;;;10.98;;
47920;SDS011;33686;48.770;9.186;2024-01-10T08:06:12;18.48;;;10.65;;
47920;SDS011;33686;48.770;9.186;2024-01-10T08:08:38;19.65;;;10.70;;
47920;SDS011;33686;48.770;9.186;2024-01-10T08:11:04;18.43;;;10.10;;
47920;SDS011;33686;48.770;9.186;2024-01-10T08:13:30;19.80;;;9.93;;
47920;SDS011;33686;48.770;9.186;2024-01-10T08:15:56;17.98;;;9.85;;
47920;SDS011;33686;48.770;9.186;2024-01-10T08:18:22;19.48;;;11.68;;
47920;SDS011;33686;48.770;9.186;2024-01-10T08:20:48;17.83;;;10.88;;
47920;SDS011;33686;48.770;9.186;2024-01-10T08:23:14;21.10;;;10.50;;
47920;SDS011;33686;48.770;9.186;2024-01-10T08:25:39;16.35;;;10.25;;
47920;SDS011;33686;48.770;9.186;2024-01-10T08:28:06;17.20;;;9.30;;
47920;SDS011;33686;48.770;9.186;2024-01-10T08:30:31;14.38;;;9.68;;
47920;SDS011;33686;48.770;9.186;2024-01-10T08:32:58;15.98;;;10.43;;
47920;SDS011;33686;48.770;9.186;2024-01-10T08:35:24;19.40;;;10.52;;
47920;SDS011;33686;48.770;9.186;2024-01-10T08:37:50;17.48;;;9.88;;
47920;SDS011;33686;48.770;9.186;2024-01-10T08:40:15;17.13;;;11.23;;
47920;SDS011;33686;48.770;9.186;2024-01-10T08:42:42;17.10;;;10.57;;
47920;SDS011;33686;48.770;9.186;2024-01-10T08:45:09;16.80;;;10.63;;
47920;SDS011;33686;48.770;9.186;2024-01-10T08:47:36;21.45;;;11.90;;
47920;SDS011;33686;48.770;9.186;2024-01-10T08:50:03;19.33;;;11.48;;
47920;SDS011;33686;48.770;9.186;2024-01-10T08:52:30;17.58;;;10.80;;
47920;SDS011;33686;48.770;9.186;2024-01-10T08:54:56;17.50;;;10.60;;
47920;SDS011;33686;48.770;9.186;2024-01-10T09:09:30;16.87;;;11.23;;
47920;SDS011;33686;48.770;9.186;2024-01-10T09:11:56;17.98;;;10.55;;
47920;SDS011;33686;48.770;9.186;2024-01-10T09:48:25;20.23;;;12.27;;
47920;SDS011;33686;48.770;9.186;2024-01-10T09:50:52;22.40;;;12.40;;
47920;SDS011;33686;48.770;9.186;2024-01-10T09:53:24;20.13;;;12.93;;
47920;SDS011;33686;48.770;9.186;2024-01-10T09:55:55;19.75;;;12.55;;
47920;SDS011;33686;48.770;9.186;2024-01-10T09:58:25;21.35;;;13.02;;
47920;SDS011;33686;48.770;9.186;2024-01-10T10:00:52;25.00;;;12.77;;
47920;SDS011;33686;48.770;9.186;2024-01-10T10:03:18;22.37;;;12.77;;
47920;SDS011;33686;48.770;9.186;2024-01-10T10:05:44;19.27;;;11.50;;
47920;SDS011;33686;48.770;9.186;2024-01-10T10:08:11;20.98;;;12.52;;
47920;SDS011;33686;48.770;9.186;2024-01-10T10:10:37;20.52;;;12.63;;
47920;SDS011;33686;48.770;9.186;2024-01-10T10:13:08;21.27;;;13.07;;
47920;SDS011;33686;48.770;9.186;2024-01-10T10:15:37;19.63;;;11.55;;
47920;SDS011;33686;48.770;9.186;2024-01-10T10:18:03;17.30;;;10.98;;
47920;SDS011;33686;48.770;9.186;2024-01-10T10:20:30;22.77;;;13.17;;
47920;SDS011;33686;48.770;9.186;2024-01-10T10:25:31;26.33;;;15.10;;
47920;SDS011;33686;48.770;9.186;2024-01-10T10:27:57;24.08;;;12.98;;
47920;SDS011;33686;48.770;9.186;2024-01-10T10:30:25;23.90;;;13.57;;
47920;SDS011;33686;48.770;9.186;2024-01-10T10:32:51;26.00;;;15.30;;
47920;SDS011;33686;48.770;9.186;2024-01-10T10:35:18;23.20;;;13.88;;
47920;SDS011;33686;48.770;9.186;2024-01-10T10:37:51;25.42;;;13.68;;
47920;SDS011;33686;48.770;9.186;2024-01-10T10:40:18;21.92;;;13.45;;
47920;SDS011;33686;48.770;9.186;2024-01-10T10:42:45;24.15;;;14.15;;
47920;SDS011;33686;48.770;9.186;2024-01-10T10:45:17;22.67;;;13.35;;
47920;SDS011;33686;48.770;9.186;2024-01-10T10:47:45;27.30;;;14.40;;
47920;SDS011;33686;48.770;9.186;2024-01-10T10:50:18;25.35;;;14.02;;
47920;SDS011;33686;48.770;9.186;2024-01-10T10:52:50;21.38;;;12.50;;
47920;SDS011;33686;48.770;9.186;2024-01-10T10:55:17;23.83;;;12.70;;
47920;SDS011;33686;48.770;9.186;2024-01-10T10:57:44;23.60;;;13.65;;
47920;SDS011;33686;48.770;9.186;2024-01-10T11:00:14;24.27;;;13.23;;
47920;SDS011;33686;48.770;9.186;2024-01-10T11:02:43;25.10;;;14.50;;
47920;SDS011;33686;48.770;9.186;2024-01-10T11:07:42;21.52;;;13.73;;
47920;SDS011;33686;48.770;9.186;2024-01-10T11:10:13;22.98;;;14.05;;
47920;SDS011;33686;48.770;9.186;2024-01-10T11:15:34;21.45;;;13.30;;
47920;SDS011;33686;48.770;9.186;2024-01-10T11:18:16;24.38;;;13.55;;
47920;SDS011;33686;48.770;9.186;2024-01-10T11:23:46;23.20;;;14.75;;
47920;SDS011;33686;48.770;9.186;2024-01-10T11:26:14;31.38;;;14.27;;
47920;SDS011;33686;48.770;9.186;2024-01-10T11:28:41;22.73;;;14.07;;
47920;SDS011;33686;48.770;9.186;2024-01-10T11:31:07;21.90;;;13.83;;
47920;SDS011;33686;48.770;9.186;2024-01-10T11:33:34;28.25;;;14.98;;
47920;SDS011;33686;48.770;9.186;2024-01-10T11:38:48;23.40;;;13.40;;
47920;SDS011;33686;48.770;9.186;2024-01-10T11:41:31;21.92;;;13.48;;
47920;SDS011;33686;48.770;9.186;2024-01-10T11:46:39;28.02;;;12.98;;
47920;SDS011;33686;48.770;9.186;2024-01-10T11:49:08;24.42;;;12.50;;
47920;SDS011;33686;48.770;9.186;2024-01-10T11:51:36;23.42;;;14.52;;
47920;SDS011;33686;48.770;9.186;2024-01-10T11:54:02;31.38;;;14.05;;
47920;SDS011;33686;48.770;9.186;2024-01-10T11:56:37;26.47;;;14.30;;
47920;SDS011;33686;48.770;9.186;2024-01-10T11:59:08;26.17;;;15.45;;
47920;SDS011;33686;48.770;9.186;2024-01-10T12:01:40;23.92;;;13.77;;
47920;SDS011;33686;48.770;9.186;2024-01-10T12:04:07;27.73;;;14.73;;
47920;SDS011;33686;48.770;9.186;2024-01-10T12:06:35;26.58;;;14.48;;
47920;SDS011;33686;48.770;9.186;2024-01-10T12:11:36;23.58;;;13.45;;
47920;SDS011;33686;48.770;9.186;2024-01-10T12:14:05;25.33;;;15.20;;
47920;SDS011;33686;48.770;9.186;2024-01-10T12:16:34;30.43;;;15.13;;
47920;SDS011;33686;48.770;9.186;2024-01-10T12:19:01;24.25;;;14.73;;
47920;SDS011;33686;48.770;9.186;2024-01-10T12:21:27;22.92;;;13.65;;
47920;SDS011;33686;48.770;9.186;2024-01-10T12:23:52;21.63;;;14.48;;
47920;SDS011;33686;48.770;9.186;2024-01-10T12:26:18;25.13;;;14.68;;
47920;SDS011;33686;48.770;9.186;2024-01-10T12:28:54;23.15;;;13.98;;
47920;SDS011;33686;48.770;9.186;2024-01-10T12:31:21;24.83;;;14.47;;
47920;SDS011;33686;48.770;9.186;2024-01-10T12:33:48;25.38;;;15.20;;
47920;SDS011;33686;48.770;9.186;2024-01-10T12:36:16;22.58;;;13.68;;
47920;SDS011;33686;48.770;9.186;2024-01-10T12:38:43;31.55;;;15.23;;
47920;SDS011;33686;48.770;9.186;2024-01-10T12:41:14;24.73;;;14.90;;
47920;SDS011;33686;48.770;9.186;2024-01-10T12:43:41;23.73;;;13.82;;
47920;SDS011;33686;48.770;9.186;2024-01-10T12:46:07;24.65;;;14.60;;
47920;SDS011;33686;48.770;9.186;2024-01-10T12:48:38;25.08;;;14.70;;
47920;SDS011;33686;48.770;9.186;2024-01-10T12:51:08;29.77;;;15.75;;
47920;SDS011;33686;48.770;9.186;2024-01-10T12:53:41;27.20;;;15.60;;
47920;SDS011;33686;48.770;9.186;2024-01-10T12:56:08;26.17;;;14.52;;
47920;SDS011;33686;48.770;9.186;2024-01-10T12:58:39;23.33;;;14.25;;
47920;SDS011;33686;48.770;9.186;2024-01-10T13:01:07;27.02;;;13.82;;
47920;SDS011;33686;48.770;9.186;2024-01-10T13:03:34;26.02;;;15.10;;
47920;SDS011;33686;48.770;9.186;2024-01-10T13:06:00;29.07;;;15.23;;
47920;SDS011;33686;48.770;9.186;2024-01-10T13:08:26;24.95;;;14.95;;
47920;SDS011;33686;48.770;9.186;2024-01-10T13:10:52;25.55;;;14.30;;
47920;SDS011;33686;48.770;9.186;2024-01-10T13:13:18;25.95;;;13.90;;
47920;SDS011;33686;48.770;9.186;2024-01-10T13:15:47;25.42;;;14.40;;
47920;SDS011;33686;48.770;9.186;2024-01-10T13:18:13;22.65;;;13.40;;
47920;SDS011;33686;48.770;9.186;2024-01-10T13:20:40;28.40;;;15.32;;
47920;SDS011;33686;48.770;9.186;2024-01-10T13:23:06;22.67;;;13.50;;
47920;SDS011;33686;48.770;9.186;2024-01-10T13:25:32;27.00;;;16.40;;
47920;SDS011;33686;48.770;9.186;2024-01-10T13:27:59;22.42;;;13.93;;
47920;SDS011;33686;48.770;9.186;2024-01-10T13:30:25;22.55;;;12.95;;
47920;SDS011;33686;48.770;9.186;2024-01-10T13:32:52;31.87;;;14.47;;
47920;SDS011;33686;48.770;9.186;2024-01-10T13:35:18;25.08;;;14.32;;
47920;SDS011;33686;48.770;9.186;2024-01-10T13:37:44;25.75;;;14.45;;
47920;SDS011;33686;48.770;9.186;2024-01-10T13:42:40;28.02;;;14.27;;
47920;SDS011;33686;48.770;9.186;2024-01-10T13:45:06;23.20;;;13.65;;
47920;SDS011;33686;48.770;9.186;2024-01-10T13:47:33;25.35;;;14.95;;
47920;SDS011;33686;48.770;9.186;2024-01-10T13:49:59;25.00;;;13.52;;
47920;SDS011;33686;48.770;9.186;2024-01-10T13:52:25;24.50;;;13.95;;
47920;SDS011;33686;48.770;9.186;2024-01-10T13:54:51;24.52;;;14.25;;
47920;SDS011;33686;48.770;9.186;2024-01-10T13:57:17;30.23;;;15.60;;
47920;SDS011;33686;48.770;9.186;2024-01-10T13:59:43;27.25;;;14.60;;
47920;SDS011;33686;48.770;9.186;2024-01-10T14:02:09;23.52;;;15.25;;
47920;SDS011;33686;48.770;9.186;2024-01-10T14:04:35;21.30;;;13.25;;
47920;SDS011;33686;48.770;9.186;2024-01-10T14:07:01;27.35;;;14.48;;
47920;SDS011;33686;48.770;9.186;2024-01-10T14:09:29;27.40;;;14.90;;
47920;SDS011;33686;48.770;9.186;2024-01-10T14:11:55;26.25;;;14.75;;
47920;SDS011;33686;48.770;9.186;2024-01-10T14:14:21;24.08;;;14.35;;
47920;SDS011;33686;48.770;9.186;2024-01-10T14:16:47;31.05;;;15.45;;
47920;SDS011;33686;48.770;9.186;2024-01-10T14:19:13;32.10;;;15.85;;
47920;SDS011;33686;48.770;9.186;2024-01-10T14:21:38;25.70;;;15.05;;
47920;SDS011;33686;48.770;9.186;2024-01-10T14:24:04;25.38;;;14.93;;
47920;SDS011;33686;48.770;9.186;2024-01-10T14:26:30;21.15;;;14.27;;
47920;SDS011;33686;48.770;9.186;2024-01-10T14:28:55;25.83;;;15.23;;
47920;SDS011;33686;48.770;9.186;2024-01-10T14:31:22;24.30;;;13.67;;
47920;SDS011;33686;48.770;9.186;2024-01-10T14:33:48;25.50;;;15.82;;
47920;SDS011;33686;48.770;9.186;2024-01-10T14:36:13;25.55;;;14.82;;
47920;SDS011;33686;48.770;9.186;2024-01-10T14:38:40;28.50;;;15.40;;
47920;SDS011;33686;48.770;9.186;2024-01-10T14:43:32;23.65;;;14.90;;
47920;SDS011;33686;48.770;9.186;2024-01-10T14:46:01;28.95;;;15.10;;
47920;SDS011;33686;48.770;9.186;2024-01-10T14:48:27;25.13;;;15.77;;
47920;SDS011;33686;48.770;9.186;2024-01-10T14:50:52;26.70;;;14.43;;
47920;SDS011;33686;48.770;9.186;2024-01-10T14:53:18;30.27;;;16.50;;
47920;SDS011;33686;48.770;9.186;2024-01-10T14:55:44;24.63;;;14.55;;
47920;SDS011;33686;48.770;9.186;2024-01-10T14:58:09;28.35;;;15.18;;
47920;SDS011;33686;48.770;9.186;2024-01-10T15:00:35;27.77;;;15.13;;
47920;SDS011;33686;48.770;9.186;2024-01-10T15:03:01;31.38;;;16.83;;
47920;SDS011;33686;48.770;9.186;2024-01-10T15:05:29;28.52;;;15.15;;
47920;SDS011;33686;48.770;9.186;2024-01-10T15:07:55;25.23;;;14.27;;
47920;SDS011;33686;48.770;9.186;2024-01-10T15:10:20;28.17;;;16.70;;
47920;SDS011;33686;48.770;9.186;2024-01-10T15:12:46;26.25;;;15.10;;
47920;SDS011;33686;48.770;9.186;2024-01-10T15:15:12;26.75;;;15.18;;
47920;SDS011;33686;48.770;9.186;2024-01-10T15:17:38;27.63;;;15.60;;
47920;SDS011;33686;48.770;9.186;2024-01-10T15:20:04;29.92;;;16.73;;
47920;SDS011;33686;48.770;9.186;2024-01-10T15:22:31;29.00;;;15.00;;
47920;SDS011;33686;48.770;9.186;2024-01-10T15:24:57;33.43;;;15.77;;
47920;SDS011;33686;48.770;9.186;2024-01-10T15:27:25;32.45;;;17.17;;
47920;SDS011;33686;48.770;9.186;2024-01-10T15:29:50;32.08;;;18.73;;
47920;SDS011;33686;48.770;9.186;2024-01-10T15:32:16;34.10;;;18.30;;
47920;SDS011;33686;48.770;9.186;2024-01-10T15:34:42;36.22;;;18.20;;
47920;SDS011;33686;48.770;9.186;2024-01-10T15:39:34;29.58;;;17.75;;
47920;SDS011;33686;48.770;9.186;2024-01-10T15:42:00;22.75;;;13.65;;
47920;SDS011;33686;48.770;9.186;2024-01-10T15:44:26;30.73;;;17.00;;
47920;SDS011;33686;48.770;9.186;2024-01-10T15:46:52;29.52;;;15.90;;
47920;SDS011;33686;48.770;9.186;2024-01-10T15:49:17;27.77;;;16.67;;
47920;SDS011;33686;48.770;9.186;2024-01-10T15:51:43;27.55;;;16.92;;
47920;SDS011;33686;48.770;9.186;2024-01-10T15:54:09;30.60;;;16.55;;
47920;SDS011;33686;48.770;9.186;2024-01-10T15:56:34;34.42;;;17.45;;
47920;SDS011;33686;48.770;9.186;2024-01-10T15:59:04;29.92;;;17.20;;
47920;SDS011;33686;48.770;9.186;2024-01-10T16:01:29;28.95;;;14.43;;
47920;SDS011;33686;48.770;9.186;2024-01-10T16:03:55;32.13;;;15.85;;
47920;SDS011;33686;48.770;9.186;2024-01-10T16:06:21;27.08;;;16.13;;
47920;SDS011;33686;48.770;9.186;2024-01-10T16:08:47;26.13;;;15.40;;
47920;SDS011;33686;48.770;9.186;2024-01-10T16:11:12;26.80;;;15.55;;
47920;SDS011;33686;48.770;9.186;2024-01-10T16:13:38;30.50;;;16.00;;
47920;SDS011;33686;48.770;9.186;2024-01-10T16:16:03;28.30;;;16.52;;
47920;SDS011;33686;48.770;9.186;2024-01-10T16:18:33;31.08;;;16.75;;
47920;SDS011;33686;48.770;9.186;2024-01-10T16:21:03;28.20;;;16.50;;
47920;SDS011;33686;48.770;9.186;2024-01-10T16:23:29;26.95;;;16.67;;
47920;SDS011;33686;48.770;9.186;2024-01-10T16:25:55;31.13;;;17.55;;
47920;SDS011;33686;48.770;9.186;2024-01-10T16:28:22;25.42;;;17.75;;
47920;SDS011;33686;48.770;9.186;2024-01-10T16:30:47;32.45;;;16.25;;
47920;SDS011;33686;48.770;9.186;2024-01-10T16:33:14;29.70;;;16.42;;
47920;SDS011;33686;48.770;9.186;2024-01-10T16:35:40;31.23;;;17.17;;
47920;SDS011;33686;48.770;9.186;2024-01-10T16:38:06;29.70;;;15.02;;
47920;SDS011;33686;48.770;9.186;2024-01-10T16:40:31;33.83;;;17.90;;
47920;SDS011;33686;48.770;9.186;2024-01-10T16:42:57;30.80;;;14.60;;
47920;SDS011;33686;48.770;9.186;2024-01-10T16:45:23;27.00;;;16.38;;
47920;SDS011;33686;48.770;9.186;2024-01-10T16:47:49;32.25;;;17.00;;
47920;SDS011;33686;48.770;9.186;2024-01-10T16:50:16;34.90;;;17.87;;
47920;SDS011;33686;48.770;9.186;2024-01-10T16:52:42;33.47;;;17.80;;
47920;SDS011;33686;48.770;9.186;2024-01-10T16:55:08;32.90;;;18.48;;
47920;SDS011;33686;48.770;9.186;2024-01-10T16:57:34;33.95;;;19.80;;
47920;SDS011;33686;48.770;9.186;2024-01-10T16:59:59;30.08;;;15.60;;
47920;SDS011;33686;48.770;9.186;2024-01-10T17:02:25;34.30;;;18.38;;
47920;SDS011;33686;48.770;9.186;2024-01-10T17:04:51;32.17;;;17.90;;
47920;SDS011;33686;48.770;9.186;2024-01-10T17:07:17;39.90;;;18.58;;
47920;SDS011;33686;48.770;9.186;2024-01-10T17:09:42;31.90;;;17.08;;
47920;SDS011;33686;48.770;9.186;2024-01-10T17:12:09;29.30;;;15.90;;
47920;SDS011;33686;48.770;9.186;2024-01-10T17:14:35;28.37;;;18.10;;
47920;SDS011;33686;48.770;9.186;2024-01-10T17:17:01;31.13;;;16.95;;
47920;SDS011;33686;48.770;9.186;2024-01-10T17:19:27;31.23;;;16.67;;
47920;SDS011;33686;48.770;9.186;2024-01-10T17:21:52;30.45;;;16.38;;
47920;SDS011;33686;48.770;9.186;2024-01-10T17:24:18;25.33;;;16.00;;
47920;SDS011;33686;48.770;9.186;2024-01-10T17:26:44;31.10;;;17.00;;
47920;SDS011;33686;48.770;9.186;2024-01-10T17:29:10;45.47;;;24.50;;
47920;SDS011;33686;48.770;9.186;2024-01-10T17:31:36;39.23;;;23.17;;
47920;SDS011;33686;48.770;9.186;2024-01-10T17:34:02;38.05;;;21.70;;
47920;SDS011;33686;48.770;9.186;2024-01-10T17:36:32;33.15;;;19.13;;
47920;SDS011;33686;48.770;9.186;2024-01-10T17:38:59;35.25;;;19.55;;
47920;SDS011;33686;48.770;9.186;2024-01-10T17:41:25;30.75;;;17.65;;
47920;SDS011;33686;48.770;9.186;2024-01-10T17:43:50;35.05;;;17.08;;
47920;SDS011;33686;48.770;9.186;2024-01-10T17:46:17;35.85;;;18.20;;
47920;SDS011;33686;48.770;9.186;2024-01-10T17:48:42;39.95;;;18.52;;
47920;SDS011;33686;48.770;9.186;2024-01-10T17:51:08;33.05;;;17.25;;
47920;SDS011;33686;48.770;9.186;2024-01-10T17:53:33;29.80;;;17.45;;
47920;SDS011;33686;48.770;9.186;2024-01-10T17:55:59;32.07;;;17.57;;
47920;SDS011;33686;48.770;9.186;2024-01-10T17:58:25;30.10;;;17.45;;
47920;SDS011;33686;48.770;9.186;2024-01-10T18:00:50;32.60;;;19.33;;
47920;SDS011;33686;48.770;9.186;2024-01-10T18:03:18;34.15;;;19.83;;
47920;SDS011;33686;48.770;9.186;2024-01-10T18:05:44;33.33;;;18.77;;
47920;SDS011;33686;48.770;9.186;2024-01-10T18:08:09;30.67;;;17.17;;
47920;SDS011;33686;48.770;9.186;2024-01-10T18:10:35;28.23;;;16.67;;
47920;SDS011;33686;48.770;9.186;2024-01-10T18:13:00;34.07;;;18.00;;
47920;SDS011;33686;48.770;9.186;2024-01-10T18:15:28;35.13;;;19.95;;
47920;SDS011;33686;48.770;9.186;2024-01-10T18:17:54;31.20;;;18.02;;
47920;SDS011;33686;48.770;9.186;2024-01-10T18:20:19;31.90;;;18.47;;
47920;SDS011;33686;48.770;9.186;2024-01-10T18:22:45;31.17;;;15.88;;
47920;SDS011;33686;48.770;9.186;2024-01-10T18:25:12;32.15;;;16.83;;
47920;SDS011;33686;48.770;9.186;2024-01-10T18:27:38;27.52;;;15.70;;
47920;SDS011;33686;48.770;9.186;2024-01-10T18:30:03;31.88;;;17.05;;
47920;SDS011;33686;48.770;9.186;2024-01-10T18:32:31;32.92;;;18.35;;
47920;SDS011;33686;48.770;9.186;2024-01-10T18:34:57;31.52;;;17.30;;
47920;SDS011;33686;48.770;9.186;2024-01-10T18:37:22;28.63;;;16.48;;
47920;SDS011;33686;48.770;9.186;2024-01-10T18:39:48;36.65;;;19.30;;
47920;SDS011;33686;48.770;9.186;2024-01-10T18:44:40;28.05;;;17.20;;
47920;SDS011;33686;48.770;9.186;2024-01-10T18:47:06;32.92;;;19.05;;
47920;SDS011;33686;48.770;9.186;2024-01-10T18:49:33;29.77;;;18.35;;
47920;SDS011;33686;48.770;9.186;2024-01-10T18:51:59;30.40;;;18.00;;
47920;SDS011;33686;48.770;9.186;2024-01-10T18:54:25;33.08;;;17.77;;
47920;SDS011;33686;48.770;9.186;2024-01-10T18:56:51;32.28;;;17.95;;
47920;SDS011;33686;48.770;9.186;2024-01-10T18:59:17;32.97;;;18.27;;
47920;SDS011;33686;48.770;9.186;2024-01-10T19:01:42;29.48;;;17.08;;
47920;SDS011;33686;48.770;9.186;2024-01-10T19:04:12;29.90;;;17.25;;
47920;SDS011;33686;48.770;9.186;2024-01-10T19:06:37;30.98;;;18.83;;
47920;SDS011;33686;48.770;9.186;2024-01-10T19:09:03;33.65;;;18.65;;
47920;SDS011;33686;48.770;9.186;2024-01-10T19:11:28;36.17;;;19.25;;
47920;SDS011;33686;48.770;9.186;2024-01-10T19:13:54;34.58;;;19.33;;
47920;SDS011;33686;48.770;9.186;2024-01-10T19:16:20;32.70;;;19.15;;
47920;SDS011;33686;48.770;9.186;2024-01-10T19:18:45;33.17;;;18.38;;
47920;SDS011;33686;48.770;9.186;2024-01-10T19:21:11;33.22;;;20.30;;
47920;SDS011;33686;48.770;9.186;2024-01-10T19:23:37;30.92;;;18.90;;
47920;SDS011;33686;48.770;9.186;2024-01-10T19:26:03;36.78;;;20.95;;
47920;SDS011;33686;48.770;9.186;2024-01-10T19:28:30;32.03;;;17.15;;
47920;SDS011;33686;48.770;9.186;2024-01-10T19:30:56;35.50;;;18.83;;
47920;SDS011;33686;48.770;9.186;2024-01-10T19:33:23;31.92;;;18.35;;
47920;SDS011;33686;48.770;9.186;2024-01-10T19:35:49;35.57;;;18.03;;
47920;SDS011;33686;48.770;9.186;2024-01-10T19:38:15;29.27;;;17.83;;
47920;SDS011;33686;48.770;9.186;2024-01-10T19:40:41;33.88;;;18.33;;
47920;SDS011;33686;48.770;9.186;2024-01-10T19:43:07;36.20;;;20.88;;
47920;SDS011;33686;48.770;9.186;2024-01-10T19:45:32;36.07;;;20.73;;
47920;SDS011;33686;48.770;9.186;2024-01-10T19:47:58;36.35;;;20.70;;
47920;SDS011;33686;48.770;9.186;2024-01-10T19:50:24;36.13;;;21.70;;
47920;SDS011;33686;48.770;9.186;2024-01-10T19:52:50;34.20;;;20.53;;
47920;SDS011;33686;48.770;9.186;2024-01-10T19:55:17;35.58;;;19.83;;
47920;SDS011;33686;48.770;9.186;2024-01-10T19:57:44;34.28;;;17.25;;
47920;SDS011;33686;48.770;9.186;2024-01-10T20:00:10;28.40;;;18.27;;
47920;SDS011;33686;48.770;9.186;2024-01-10T20:02:36;34.28;;;18.23;;
47920;SDS011;33686;48.770;9.186;2024-01-10T20:05:02;32.65;;;17.80;;
47920;SDS011;33686;48.770;9.186;2024-01-10T20:07:28;34.87;;;18.57;;
47920;SDS011;33686;48.770;9.186;2024-01-10T20:09:53;35.95;;;21.17;;
47920;SDS011;33686;48.770;9.186;2024-01-10T20:12:20;37.45;;;20.67;;
47920;SDS011;33686;48.770;9.186;2024-01-10T20:14:46;36.63;;;20.75;;
47920;SDS011;33686;48.770;9.186;2024-01-10T20:17:12;38.40;;;20.35;;
47920;SDS011;33686;48.770;9.186;2024-01-10T20:19:38;30.42;;;19.73;;
47920;SDS011;33686;48.770;9.186;2024-01-10T20:22:03;29.47;;;18.53;;
47920;SDS011;33686;48.770;9.186;2024-01-10T20:24:29;38.10;;;21.40;;
47920;SDS011;33686;48.770;9.186;2024-01-10T20:26:55;33.80;;;19.95;;
47920;SDS011;33686;48.770;9.186;2024-01-10T20:29:20;31.35;;;17.83;;
47920;SDS011;33686;48.770;9.186;2024-01-10T20:31:46;35.75;;;19.05;;
47920;SDS011;33686;48.770;9.186;2024-01-10T20:34:11;33.95;;;18.42;;
47920;SDS011;33686;48.770;9.186;2024-01-10T20:36:37;34.37;;;19.43;;
47920;SDS011;33686;48.770;9.186;2024-01-10T20:39:03;40.92;;;20.63;;
47920;SDS011;33686;48.770;9.186;2024-01-10T20:41:29;34.15;;;20.45;;
47920;SDS011;33686;48.770;9.186;2024-01-10T20:43:56;31.10;;;19.33;;
47920;SDS011;33686;48.770;9.186;2024-01-10T20:46:21;36.13;;;20.70;;
47920;SDS011;33686;48.770;9.186;2024-01-10T20:48:47;37.25;;;19.17;;
47920;SDS011;33686;48.770;9.186;2024-01-10T20:51:13;39.90;;;19.63;;
47920;SDS011;33686;48.770;9.186;2024-01-10T20:53:38;30.75;;;17.67;;
47920;SDS011;33686;48.770;9.186;2024-01-10T20:56:05;36.65;;;18.42;;
47920;SDS011;33686;48.770;9.186;2024-01-10T20:58:31;35.88;;;18.80;;
47920;SDS011;33686;48.770;9.186;2024-01-10T21:00:56;35.70;;;17.80;;
47920;SDS011;33686;48.770;9.186;2024-01-10T21:03:23;34.28;;;18.67;;
47920;SDS011;33686;48.770;9.186;2024-01-10T21:05:54;36.53;;;19.50;;
47920;SDS011;33686;48.770;9.186;2024-01-10T21:08:20;30.27;;;17.53;;
47920;SDS011;33686;48.770;9.186;2024-01-10T21:10:46;33.97;;;17.30;;
47920;SDS011;33686;48.770;9.186;2024-01-10T21:13:11;35.78;;;20.08;;
47920;SDS011;33686;48.770;9.186;2024-01-10T21:15:37;30.50;;;18.08;;
47920;SDS011;33686;48.770;9.186;2024-01-10T21:18:03;31.00;;;17.48;;
47920;SDS011;33686;48.770;9.186;2024-01-10T21:20:29;35.33;;;19.20;;
47920;SDS011;33686;48.770;9.186;2024-01-10T21:22:54;35.72;;;18.65;;
47920;SDS011;33686;48.770;9.186;2024-01-10T21:25:20;34.03;;;19.83;;
47920;SDS011;33686;48.770;9.186;2024-01-10T21:27:46;33.35;;;18.52;;
47920;SDS011;33686;48.770;9.186;2024-01-10T21:30:12;37.77;;;20.00;;
47920;SDS011;33686;48.770;9.186;2024-01-10T21:32:38;32.83;;;19.52;;
47920;SDS011;33686;48.770;9.186;2024-01-10T21:35:03;35.03;;;19.73;;
47920;SDS011;33686;48.770;9.186;2024-01-10T21:37:29;35.55;;;19.63;;
47920;SDS011;33686;48.770;9.186;2024-01-10T21:39:55;43.88;;;19.92;;
47920;SDS011;33686;48.770;9.186;2024-01-10T21:42:21;36.58;;;20.08;;
47920;SDS011;33686;48.770;9.186;2024-01-10T21:44:48;36.53;;;21.33;;
47920;SDS011;33686;48.770;9.186;2024-01-10T21:47:13;40.93;;;21.03;;
47920;SDS011;33686;48.770;9.186;2024-01-10T21:49:40;32.40;;;20.20;;
47920;SDS011;33686;48.770;9.186;2024-01-10T21:52:05;35.20;;;20.43;;